createdAt,value
2018-03-23T00:01:31.342Z,22.60
2018-03-23T00:04:04.841Z,23.33
2018-03-23T00:06:32.282Z,23.35
2018-03-23T00:08:59.754Z,24.08
2018-03-23T00:11:27.208Z,24.40
2018-03-23T00:13:54.667Z,26.42
2018-03-23T00:16:22.122Z,26.95
2018-03-23T00:18:49.886Z,25.98
2018-03-23T00:21:17.334Z,25.25
2018-03-23T00:23:45.469Z,26.65
2018-03-23T00:26:27.296Z,27.65
2018-03-23T00:28:54.766Z,29.05
2018-03-23T00:31:22.217Z,30.27
2018-03-23T00:33:49.684Z,26.55
2018-03-23T00:36:17.129Z,28.90
2018-03-23T00:38:44.580Z,27.92
2018-03-23T00:41:12.221Z,28.60
2018-03-23T00:43:40.434Z,28.67
2018-03-23T00:46:08.649Z,27.58
2018-03-23T00:48:36.124Z,30.05
2018-03-23T00:51:04.343Z,30.48
2018-03-23T00:53:33.712Z,26.60
2018-03-23T00:56:01.946Z,28.55
2018-03-23T00:58:29.485Z,29.75
2018-03-23T01:00:57.720Z,29.65
2018-03-23T01:03:25.937Z,29.98
2018-03-23T01:05:53.407Z,29.55
2018-03-23T01:08:35.900Z,32.08
2018-03-23T01:11:03.357Z,30.75
2018-03-23T01:13:30.928Z,33.50
2018-03-23T01:15:58.381Z,33.78
2018-03-23T01:18:25.866Z,32.75
2018-03-23T01:20:57.078Z,34.92
2018-03-23T01:23:24.572Z,37.35
2018-03-23T01:25:52.008Z,35.95
2018-03-23T01:28:19.448Z,38.65
2018-03-23T01:30:50.813Z,35.30
2018-03-23T01:33:18.282Z,37.78
2018-03-23T01:35:45.746Z,36.58
2018-03-23T01:38:13.201Z,38.58
2018-03-23T01:40:40.668Z,37.30
2018-03-23T01:43:08.121Z,36.85
2018-03-23T01:45:35.565Z,38.83
2018-03-23T01:48:03.157Z,36.40
2018-03-23T01:50:30.610Z,38.20
2018-03-23T01:52:58.070Z,38.08
2018-03-23T01:55:25.516Z,38.30
2018-03-23T01:57:52.984Z,38.75
2018-03-23T02:00:20.441Z,37.90
2018-03-23T02:02:47.904Z,37.50
2018-03-23T02:05:16.125Z,37.10
2018-03-23T02:07:43.911Z,38.42
2018-03-23T02:10:11.357Z,36.97
2018-03-23T02:12:38.809Z,38.58
2018-03-23T02:15:06.297Z,38.60
2018-03-23T02:17:33.754Z,40.53
2018-03-23T02:20:01.252Z,37.10
2018-03-23T02:22:29.645Z,37.20
2018-03-23T02:24:57.089Z,37.72
2018-03-23T02:27:25.326Z,41.78
2018-03-23T02:29:52.768Z,41.22
2018-03-23T02:32:20.278Z,44.33
2018-03-23T02:34:47.722Z,40.33
2018-03-23T02:37:16.024Z,41.70
2018-03-23T02:42:40.008Z,41.00
2018-03-23T02:45:13.674Z,39.28
2018-03-23T02:47:41.277Z,41.95
2018-03-23T02:50:08.729Z,40.40
2018-03-23T02:52:36.949Z,36.97
2018-03-23T02:55:04.424Z,37.33
2018-03-23T02:57:31.870Z,39.30
2018-03-23T02:59:59.330Z,36.28
2018-03-23T03:02:26.967Z,38.75
2018-03-23T03:04:54.410Z,35.13
2018-03-23T03:07:21.852Z,32.10
2018-03-23T03:09:50.160Z,37.17
2018-03-23T03:12:18.365Z,32.58
2018-03-23T03:14:45.832Z,33.55
2018-03-23T03:17:13.289Z,34.30
2018-03-23T03:19:41.133Z,31.00
2018-03-23T03:22:08.578Z,32.92
2018-03-23T03:24:36.026Z,31.08
2018-03-23T03:27:03.489Z,31.87
2018-03-23T03:29:30.945Z,33.80
2018-03-23T03:31:59.170Z,29.75
2018-03-23T03:34:30.812Z,31.45
2018-03-23T03:36:58.282Z,32.45
2018-03-23T03:39:25.876Z,29.23
2018-03-23T03:41:58.321Z,31.77
2018-03-23T03:44:25.801Z,33.15
2018-03-23T03:46:54.014Z,34.10
2018-03-23T03:49:21.755Z,34.97
2018-03-23T03:51:49.277Z,33.60
2018-03-23T03:54:16.724Z,31.80
2018-03-23T03:56:44.163Z,34.65
2018-03-23T03:59:11.704Z,40.38
2018-03-23T04:01:39.140Z,36.17
2018-03-23T04:04:06.576Z,34.83
2018-03-23T04:06:34.821Z,32.78
2018-03-23T04:09:02.257Z,32.63
2018-03-23T04:11:31.444Z,30.73
2018-03-23T04:13:59.048Z,33.35
2018-03-23T04:16:26.912Z,32.92
2018-03-23T04:18:54.369Z,35.50
2018-03-23T04:21:26.913Z,37.63
2018-03-23T04:24:03.309Z,32.72
2018-03-23T04:26:30.773Z,31.02
2018-03-23T04:28:58.260Z,31.08
2018-03-23T04:31:25.700Z,32.38
2018-03-23T04:33:53.150Z,35.05
2018-03-23T04:36:22.244Z,47.42
2018-03-23T04:38:49.693Z,29.10
2018-03-23T04:41:17.196Z,31.98
2018-03-23T04:43:44.640Z,27.83
2018-03-23T04:46:12.854Z,29.63
2018-03-23T04:48:40.321Z,27.77
2018-03-23T04:51:07.771Z,29.30
2018-03-23T04:53:36.575Z,30.00
2018-03-23T04:56:04.024Z,27.42
2018-03-23T04:58:31.472Z,35.10
2018-03-23T05:00:58.938Z,25.98
2018-03-23T05:03:26.408Z,34.90
2018-03-23T05:05:53.889Z,31.65
2018-03-23T05:08:21.508Z,37.83
2018-03-23T05:10:49.289Z,34.63
2018-03-23T05:13:16.740Z,32.92
2018-03-23T05:15:44.260Z,43.17
2018-03-23T05:18:12.552Z,37.40
2018-03-23T05:20:40.009Z,44.13
2018-03-23T05:23:07.640Z,41.15
2018-03-23T05:25:35.941Z,37.88
2018-03-23T05:28:04.140Z,47.20
2018-03-23T05:30:31.904Z,46.37
2018-03-23T05:33:00.527Z,44.70
2018-03-23T05:35:27.973Z,47.08
2018-03-23T05:37:55.836Z,46.35
2018-03-23T05:40:24.184Z,47.40
2018-03-23T05:42:51.645Z,47.28
2018-03-23T05:45:19.108Z,47.25
2018-03-23T05:47:46.573Z,45.90
2018-03-23T05:50:14.181Z,48.35
2018-03-23T05:52:42.393Z,49.67
2018-03-23T05:55:09.876Z,47.85
2018-03-23T05:57:37.325Z,44.50
2018-03-23T06:00:04.769Z,44.45
2018-03-23T06:02:32.374Z,44.08
2018-03-23T06:04:59.817Z,44.95
2018-03-23T06:07:27.265Z,46.70
2018-03-23T06:09:54.836Z,49.38
2018-03-23T06:12:22.280Z,46.47
2018-03-23T06:14:49.769Z,47.08
2018-03-23T06:17:17.219Z,47.42
2018-03-23T06:19:44.669Z,46.15
2018-03-23T06:22:12.192Z,45.92
2018-03-23T06:24:39.670Z,44.72
2018-03-23T06:27:07.113Z,45.50
2018-03-23T06:29:34.630Z,44.80
2018-03-23T06:32:02.852Z,43.53
2018-03-23T06:34:30.301Z,45.15
2018-03-23T06:36:57.768Z,43.47
2018-03-23T06:39:25.225Z,45.58
2018-03-23T06:41:52.783Z,45.33
2018-03-23T06:44:20.220Z,43.90
2018-03-23T06:46:47.693Z,45.05
2018-03-23T06:49:15.159Z,44.75
2018-03-23T06:51:42.608Z,45.45
2018-03-23T06:54:10.139Z,42.42
2018-03-23T06:56:37.624Z,42.85
2018-03-23T06:59:05.094Z,40.10
2018-03-23T07:01:32.628Z,40.88
2018-03-23T07:04:00.097Z,41.15
2018-03-23T07:06:27.553Z,41.17
2018-03-23T07:08:55.065Z,40.78
2018-03-23T07:11:22.499Z,41.37
2018-03-23T07:13:49.984Z,39.15
2018-03-23T07:16:18.203Z,39.55
2018-03-23T07:18:45.668Z,51.10
2018-03-23T07:21:13.153Z,43.65
2018-03-23T07:23:40.728Z,42.50
2018-03-23T07:26:08.161Z,38.42
2018-03-23T07:28:35.627Z,42.15
2018-03-23T07:31:03.071Z,38.30
2018-03-23T07:33:30.544Z,37.10
2018-03-23T07:35:58.004Z,38.72
2018-03-23T07:38:25.629Z,38.20
2018-03-23T07:40:53.066Z,37.15
2018-03-23T07:43:20.501Z,37.97
2018-03-23T07:45:48.917Z,37.83
2018-03-23T07:48:16.418Z,38.35
2018-03-23T07:50:43.861Z,37.58
2018-03-23T07:53:11.325Z,38.15
2018-03-23T07:55:38.776Z,38.75
2018-03-23T07:58:06.407Z,37.85
2018-03-23T08:00:33.840Z,38.42
2018-03-23T08:03:02.153Z,35.40
2018-03-23T08:05:29.588Z,37.08
2018-03-23T08:07:57.024Z,33.55
2018-03-23T08:10:25.376Z,36.63
2018-03-23T08:12:52.837Z,35.38
2018-03-23T08:15:20.283Z,34.38
2018-03-23T08:17:47.769Z,33.92
2018-03-23T08:20:15.252Z,35.30
2018-03-23T08:22:42.717Z,36.75
2018-03-23T08:25:10.336Z,36.75
2018-03-23T08:27:37.777Z,37.33
2018-03-23T08:30:05.240Z,34.72
2018-03-23T08:32:32.704Z,36.60
2018-03-23T08:35:00.185Z,35.10
2018-03-23T08:37:31.572Z,33.67
2018-03-23T08:40:00.493Z,38.70
2018-03-23T08:42:27.953Z,34.20
2018-03-23T08:44:55.423Z,33.95
2018-03-23T08:47:22.869Z,35.47
2018-03-23T08:49:50.336Z,32.85
2018-03-23T08:52:17.796Z,33.72
2018-03-23T08:54:45.236Z,32.45
2018-03-23T08:57:12.766Z,31.42
2018-03-23T08:59:40.717Z,32.40
2018-03-23T09:02:08.171Z,31.75
2018-03-23T09:04:36.404Z,30.17
2018-03-23T09:07:03.876Z,32.83
2018-03-23T09:09:31.439Z,30.83
2018-03-23T09:11:58.872Z,30.27
2018-03-23T09:14:26.315Z,31.50
2018-03-23T09:16:53.780Z,28.67
2018-03-23T09:19:21.235Z,28.50
2018-03-23T09:21:48.735Z,29.15
2018-03-23T09:24:16.154Z,29.12
2018-03-23T09:26:43.806Z,28.52
2018-03-23T09:29:13.132Z,30.10
2018-03-23T09:31:40.598Z,29.60
2018-03-23T09:34:08.076Z,28.67
2018-03-23T09:36:35.524Z,30.48
2018-03-23T09:39:02.977Z,29.85
2018-03-23T09:41:30.648Z,29.98
2018-03-23T09:43:58.123Z,31.67
2018-03-23T09:46:26.346Z,30.98
2018-03-23T09:48:53.816Z,31.52
2018-03-23T09:51:21.298Z,28.58
2018-03-23T09:53:48.775Z,32.90
2018-03-23T09:56:16.223Z,32.28
2018-03-23T09:58:43.672Z,30.12
2018-03-23T10:01:12.742Z,32.25
2018-03-23T10:03:40.243Z,32.13
2018-03-23T10:06:07.738Z,31.10
2018-03-23T10:08:35.185Z,32.67
2018-03-23T10:11:02.646Z,32.15
2018-03-23T10:13:30.108Z,30.75
2018-03-23T10:15:57.548Z,31.45
2018-03-23T10:18:25.140Z,30.08
2018-03-23T10:20:52.707Z,31.23
2018-03-23T10:23:20.189Z,30.23
2018-03-23T10:25:48.384Z,30.70
2018-03-23T10:28:15.826Z,33.08
2018-03-23T10:30:44.064Z,32.35
2018-03-23T10:33:11.504Z,34.33
2018-03-23T10:35:38.957Z,32.63
2018-03-23T10:38:06.552Z,33.45
2018-03-23T10:40:33.996Z,33.38
2018-03-23T10:43:01.456Z,34.08
2018-03-23T10:45:28.920Z,31.40
2018-03-23T10:47:56.397Z,31.80
2018-03-23T10:50:23.836Z,29.25
2018-03-23T10:52:51.335Z,29.80
2018-03-23T10:55:19.542Z,30.08
2018-03-23T10:57:47.537Z,29.42
2018-03-23T11:00:14.989Z,29.55
2018-03-23T11:02:48.205Z,29.85
2018-03-23T11:05:15.664Z,28.85
2018-03-23T11:07:43.129Z,29.37
2018-03-23T11:10:11.353Z,30.00
2018-03-23T11:12:38.828Z,26.98
2018-03-23T11:15:06.282Z,29.63
2018-03-23T11:17:33.904Z,29.45
2018-03-23T11:20:01.560Z,30.40
2018-03-23T11:22:29.011Z,31.20
2018-03-23T11:24:56.472Z,30.52
2018-03-23T11:27:23.909Z,30.00
2018-03-23T11:29:51.448Z,29.50
2018-03-23T11:32:18.901Z,29.45
2018-03-23T11:34:46.352Z,28.67
2018-03-23T11:37:16.481Z,30.40
2018-03-23T11:51:06.156Z,28.33
2018-03-23T11:53:33.691Z,26.55
2018-03-23T11:56:01.139Z,25.73
2018-03-23T11:58:32.812Z,25.62
2018-03-23T12:01:00.248Z,27.75
2018-03-23T12:03:27.698Z,28.98
2018-03-23T12:05:55.218Z,28.62
2018-03-23T12:08:23.429Z,29.80
2018-03-23T12:10:50.889Z,31.90
2018-03-23T12:13:18.488Z,29.65
2018-03-23T12:15:45.932Z,42.45
2018-03-23T12:18:13.397Z,33.40
2018-03-23T12:20:41.090Z,34.13
2018-03-23T12:23:09.352Z,26.60
2018-03-23T12:25:36.809Z,27.10
2018-03-23T12:28:04.320Z,26.20
2018-03-23T12:30:31.779Z,34.30
2018-03-23T12:32:59.298Z,29.52
2018-03-23T12:35:27.526Z,28.25
2018-03-23T12:37:55.176Z,25.55
2018-03-23T12:40:22.612Z,24.67
2018-03-23T12:42:50.225Z,25.37
2018-03-23T12:45:17.667Z,25.92
2018-03-23T12:47:45.885Z,25.37
2018-03-23T12:50:13.372Z,25.37
2018-03-23T12:52:40.871Z,26.45
2018-03-23T12:55:08.309Z,25.27
2018-03-23T12:57:36.674Z,24.10
2018-03-23T13:00:04.235Z,26.27
2018-03-23T13:02:31.737Z,24.42
2018-03-23T13:04:59.173Z,25.85
2018-03-23T13:07:26.640Z,23.73
2018-03-23T13:09:54.077Z,24.23
2018-03-23T13:12:21.543Z,25.15
2018-03-23T13:14:48.997Z,23.90
2018-03-23T13:17:16.634Z,23.92
2018-03-23T13:19:44.065Z,24.50
2018-03-23T13:22:12.352Z,24.75
2018-03-23T13:24:39.818Z,25.45
2018-03-23T13:27:07.252Z,25.30
2018-03-23T13:29:36.371Z,25.23
2018-03-23T13:32:03.809Z,24.98
2018-03-23T13:34:32.175Z,24.87
2018-03-23T13:37:02.401Z,24.90
2018-03-23T13:39:30.672Z,24.70
2018-03-23T13:42:00.029Z,24.80
2018-03-23T13:44:27.499Z,31.20
2018-03-23T13:46:54.936Z,28.80
2018-03-23T13:49:22.460Z,25.50
2018-03-23T13:51:49.949Z,24.35
2018-03-23T13:54:17.392Z,26.25
2018-03-23T13:56:44.829Z,27.62
2018-03-23T13:59:18.089Z,28.33
2018-03-23T14:01:45.524Z,26.30
2018-03-23T14:04:13.188Z,24.98
2018-03-23T14:06:42.530Z,26.42
2018-03-23T14:09:10.962Z,24.85
2018-03-23T14:11:38.751Z,24.85
2018-03-23T14:14:06.672Z,24.98
2018-03-23T14:16:34.497Z,24.02
2018-03-23T14:19:03.037Z,24.70
2018-03-23T14:21:30.536Z,24.48
2018-03-23T14:23:57.989Z,26.02
2018-03-23T14:26:25.449Z,25.12
2018-03-23T14:28:52.933Z,25.60
2018-03-23T14:31:20.364Z,24.33
2018-03-23T14:33:47.817Z,23.73
2018-03-23T14:36:15.256Z,24.65
2018-03-23T14:38:42.889Z,24.48
2018-03-23T14:41:11.093Z,24.70
2018-03-23T14:43:38.598Z,25.02
2018-03-23T14:46:06.052Z,23.85
2018-03-23T14:48:33.500Z,23.33
2018-03-23T14:51:01.056Z,22.70
2018-03-23T14:53:28.508Z,22.98
2018-03-23T14:55:59.650Z,24.20
2018-03-23T14:58:27.392Z,21.75
2018-03-23T15:00:54.849Z,20.67
2018-03-23T15:03:22.287Z,21.60
2018-03-23T15:05:49.760Z,20.58
2018-03-23T15:08:17.192Z,20.25
2018-03-23T15:10:45.390Z,20.90
2018-03-23T15:13:12.980Z,19.17
2018-03-23T15:15:40.439Z,27.00
2018-03-23T15:18:07.904Z,18.73
2018-03-23T15:20:35.344Z,18.58
2018-03-23T15:23:02.805Z,19.10
2018-03-23T15:25:30.242Z,22.05
2018-03-23T15:27:57.868Z,17.80
2018-03-23T15:30:25.304Z,15.35
2018-03-23T15:32:52.772Z,16.17
2018-03-23T15:35:21.105Z,14.30
2018-03-23T15:37:48.569Z,14.02
2018-03-23T15:40:15.996Z,38.53
2018-03-23T15:42:43.462Z,12.70
2018-03-23T15:45:10.915Z,17.00
2018-03-23T15:47:39.452Z,22.25
2018-03-23T15:50:06.898Z,11.75
2018-03-23T15:52:34.367Z,11.07
2018-03-23T15:55:01.813Z,12.32
2018-03-23T15:57:29.269Z,10.63
2018-03-23T15:59:56.700Z,9.90
2018-03-23T16:02:24.254Z,8.50
2018-03-23T16:04:51.862Z,8.90
2018-03-23T16:07:20.298Z,11.40
2018-03-23T16:09:47.801Z,9.38
2018-03-23T16:12:15.261Z,8.13
2018-03-23T16:14:42.713Z,8.80
2018-03-23T16:17:10.160Z,8.88
2018-03-23T16:19:37.668Z,8.18
2018-03-23T16:22:05.178Z,8.82
2018-03-23T16:24:32.669Z,9.50
2018-03-23T16:27:00.873Z,9.15
2018-03-23T16:29:28.364Z,8.00
2018-03-23T16:31:56.744Z,8.10
2018-03-23T16:34:24.140Z,8.30
2018-03-23T16:36:52.386Z,8.15
2018-03-23T16:39:20.844Z,8.35
2018-03-23T16:41:48.287Z,8.70
2018-03-23T16:44:17.075Z,8.82
2018-03-23T16:46:44.505Z,8.10
2018-03-23T16:49:13.249Z,8.43
2018-03-23T16:51:41.109Z,8.05
2018-03-23T16:54:09.745Z,8.27
2018-03-23T16:56:37.196Z,8.48
2018-03-23T16:59:05.399Z,8.50
2018-03-23T17:01:33.185Z,8.25
2018-03-23T17:04:00.691Z,9.25
2018-03-23T17:06:28.224Z,8.38
2018-03-23T17:08:55.774Z,8.55
2018-03-23T17:11:23.279Z,9.55
2018-03-23T17:13:50.764Z,9.75
2018-03-23T17:16:19.262Z,9.30
2018-03-23T17:18:47.111Z,9.88
2018-03-23T17:21:14.550Z,8.93
2018-03-23T17:23:42.033Z,10.40
2018-03-23T17:26:09.493Z,11.30
2018-03-23T17:28:36.989Z,10.27
2018-03-23T17:31:04.424Z,9.20
2018-03-23T17:33:32.120Z,9.45
2018-03-23T17:36:00.400Z,32.92
2018-03-23T17:38:28.856Z,9.65
2018-03-23T17:40:57.633Z,14.65
2018-03-23T17:43:25.113Z,24.30
2018-03-23T17:45:52.523Z,29.87
2018-03-23T17:48:20.021Z,13.43
2018-03-23T17:50:47.466Z,10.77
2018-03-23T17:53:15.270Z,11.45
2018-03-23T17:55:43.616Z,13.27
2018-03-23T17:58:11.271Z,11.57
2018-03-23T18:00:39.361Z,12.75
2018-03-23T18:03:11.592Z,11.85
2018-03-23T18:05:39.085Z,11.38
2018-03-23T18:08:07.779Z,12.15
2018-03-23T18:10:36.163Z,11.82
2018-03-23T18:13:07.357Z,13.75
2018-03-23T18:15:53.213Z,12.75
2018-03-23T18:18:21.416Z,13.10
2018-03-23T18:20:48.900Z,12.45
2018-03-23T18:23:16.336Z,12.65
2018-03-23T18:25:43.792Z,12.27
2018-03-23T18:28:17.552Z,12.35
2018-03-23T18:30:45.141Z,12.35
2018-03-23T18:33:12.572Z,13.32
2018-03-23T18:35:40.830Z,13.80
2018-03-23T18:38:08.320Z,14.00
2018-03-23T18:40:36.591Z,14.63
2018-03-23T18:43:04.814Z,15.10
2018-03-23T18:45:32.267Z,19.52
2018-03-23T18:47:59.811Z,15.32
2018-03-23T18:50:28.264Z,18.77
2018-03-23T18:52:56.462Z,16.50
2018-03-23T18:55:23.929Z,19.67
2018-03-23T18:57:51.385Z,18.52
2018-03-23T19:00:18.872Z,16.27
2018-03-23T19:02:48.300Z,16.95
2018-03-23T19:05:15.915Z,15.05
2018-03-23T19:07:43.539Z,19.60
2018-03-23T19:10:11.767Z,15.93
2018-03-23T19:12:39.216Z,13.90
2018-03-23T19:15:06.793Z,15.70
2018-03-23T19:17:34.209Z,15.07
2018-03-23T19:20:01.680Z,14.68
2018-03-23T19:22:29.890Z,12.32
2018-03-23T19:24:57.382Z,13.43
2018-03-23T19:27:25.597Z,12.75
2018-03-23T19:29:53.250Z,13.07
2018-03-23T19:35:11.472Z,14.50
2018-03-23T19:37:42.476Z,14.23
2018-03-23T19:40:09.950Z,13.15
2018-03-23T19:42:38.155Z,15.30
2018-03-23T19:45:05.597Z,13.70
2018-03-23T19:47:33.161Z,12.80
2018-03-23T19:50:01.371Z,13.85
2018-03-23T19:52:34.825Z,14.20
2018-03-23T19:55:03.660Z,14.65
2018-03-23T19:57:31.766Z,15.30
2018-03-23T19:59:59.192Z,14.93
2018-03-23T20:02:27.152Z,15.85
2018-03-23T20:04:54.602Z,15.00
2018-03-23T20:07:22.048Z,15.25
2018-03-23T20:09:49.525Z,14.98
2018-03-23T20:12:16.997Z,16.02
2018-03-23T20:14:46.417Z,15.32
2018-03-23T20:17:14.096Z,19.25
2018-03-23T20:19:42.314Z,16.30
2018-03-23T20:22:09.797Z,15.30
2018-03-23T20:24:37.381Z,14.70
2018-03-23T20:27:10.595Z,14.75
2018-03-23T20:29:39.940Z,14.87
2018-03-23T20:32:23.256Z,15.52
2018-03-23T20:34:51.961Z,15.55
2018-03-23T20:37:19.445Z,15.52
2018-03-23T20:39:47.704Z,15.57
2018-03-23T20:42:15.143Z,15.20
2018-03-23T20:44:42.609Z,16.12
2018-03-23T20:47:10.166Z,15.30
2018-03-23T20:49:37.576Z,15.77
2018-03-23T20:52:05.045Z,15.10
2018-03-23T20:54:32.486Z,17.25
2018-03-23T20:57:00.720Z,17.45
2018-03-23T20:59:28.161Z,15.73
2018-03-23T21:01:55.608Z,15.95
2018-03-23T21:04:23.613Z,15.02
2018-03-23T21:06:51.041Z,15.55
2018-03-23T21:09:18.484Z,17.27
2018-03-23T21:11:45.960Z,15.52
2018-03-23T21:14:13.428Z,16.00
2018-03-23T21:16:40.861Z,14.82
2018-03-23T21:19:08.396Z,14.93
2018-03-23T21:21:35.968Z,14.20
2018-03-23T21:24:03.437Z,14.30
2018-03-23T21:26:30.879Z,14.52
2018-03-23T21:28:58.457Z,13.77
2018-03-23T21:31:25.864Z,14.45
2018-03-23T21:33:53.304Z,14.85
2018-03-23T21:36:20.905Z,13.88
2018-03-23T21:38:48.379Z,14.38
2018-03-23T21:41:20.597Z,14.27
2018-03-23T21:43:48.404Z,14.68
2018-03-23T21:46:16.596Z,13.70
2018-03-23T21:48:44.032Z,14.32
2018-03-23T21:51:11.689Z,15.48
2018-03-23T21:53:39.184Z,14.20
2018-03-23T21:56:08.632Z,12.82
2018-03-23T21:58:36.104Z,14.35
2018-03-23T22:01:05.448Z,14.38
2018-03-23T22:03:32.896Z,13.98
2018-03-23T22:06:00.381Z,14.07
2018-03-23T22:08:28.735Z,14.38
2018-03-23T22:10:56.168Z,14.10
2018-03-23T22:13:23.669Z,14.32
2018-03-23T22:15:51.095Z,13.70
2018-03-23T22:18:18.548Z,13.45
2018-03-23T22:20:45.995Z,15.13
2018-03-23T22:23:15.784Z,14.43
2018-03-23T22:25:43.216Z,14.15
2018-03-23T22:28:10.672Z,13.93
2018-03-23T22:30:38.157Z,13.85
2018-03-23T22:33:05.596Z,15.38
2018-03-23T22:35:33.038Z,14.13
2018-03-23T22:38:00.524Z,15.73
2018-03-23T22:40:27.985Z,14.23
2018-03-23T22:42:55.425Z,14.98
2018-03-23T22:45:22.926Z,14.80
2018-03-23T22:47:53.113Z,15.13
2018-03-23T22:50:20.554Z,15.27
2018-03-23T22:52:48.060Z,13.60
2018-03-23T22:55:34.173Z,14.35
2018-03-23T22:58:02.916Z,13.77
2018-03-23T23:00:30.432Z,14.80
2018-03-23T23:02:57.936Z,14.95
2018-03-23T23:05:26.264Z,15.13
2018-03-23T23:07:53.704Z,13.73
2018-03-23T23:10:21.327Z,13.52
2018-03-23T23:12:48.774Z,14.00
2018-03-23T23:15:16.224Z,15.48
2018-03-23T23:17:43.725Z,14.63
2018-03-23T23:20:29.953Z,15.50
2018-03-23T23:22:57.464Z,14.98
2018-03-23T23:25:24.901Z,13.93
2018-03-23T23:27:52.345Z,14.50
2018-03-23T23:30:19.904Z,14.10
2018-03-23T23:32:47.608Z,14.15
2018-03-23T23:35:15.815Z,13.85
2018-03-23T23:37:43.302Z,14.50
2018-03-23T23:40:10.741Z,14.70
2018-03-23T23:42:38.208Z,13.65
2018-03-23T23:45:06.416Z,14.35
2018-03-23T23:47:33.882Z,15.27
2018-03-23T23:50:01.330Z,14.27
2018-03-23T23:52:30.786Z,15.02
2018-03-23T23:54:58.217Z,15.65
2018-03-23T23:57:26.444Z,15.20
2018-03-23T23:59:53.889Z,14.32
